Canton, Kansas
Current Conditions -  °F | °C
As of 1:15 AM on Friday 31 Oct 2014 (Local Time) from KEWK Reporting Station
Clear Clear  
Wind Chill: 36°   Ceiling: Unl
Heat Index: 45°   Visibility: 10mi
Dew Point: 32°   Wind: 23mph
Humidity: 61%   Direction: 360°N
Pressure: 30.34"   Gusts: 31mph
Location:  38.39°N, 97.43°W
Report Text: KEWK 310615Z AUTO 36020G27KT 10SM CLR 07/00 A3034 RMK AO1
Loading
Personal Weather Stations






























Interactive Weather Map
Tropical Storm Tracking
New forecast layout! Learn more

10-Day Weather Forecast

Advertisements
Track Severe Weather on mobile